createdAt,value
2022-11-08T00:03:03.913Z,0.90
2022-11-08T00:07:27.942Z,0.40
2022-11-08T00:12:02.573Z,0.93
2022-11-08T00:16:04.558Z,0.20
2022-11-08T00:20:07.542Z,0.50
2022-11-08T00:24:36.338Z,0.40
2022-11-08T00:28:38.199Z,0.97
2022-11-08T00:32:40.292Z,0.83
2022-11-08T00:36:56.705Z,1.13
2022-11-08T00:40:58.592Z,0.30
2022-11-08T00:45:00.700Z,1.23
2022-11-08T00:49:02.730Z,1.70
2022-11-08T00:53:32.996Z,1.23
2022-11-08T00:57:58.020Z,1.03
2022-11-08T01:02:00.908Z,1.20
2022-11-08T01:06:05.677Z,0.40
2022-11-08T01:10:17.829Z,0.67
2022-11-08T01:14:19.976Z,0.70
2022-11-08T01:18:24.155Z,2.97
2022-11-08T01:22:29.316Z,0.63
2022-11-08T01:26:34.789Z,0.33
2022-11-08T01:30:41.902Z,1.37
2022-11-08T01:34:44.032Z,0.50
2022-11-08T01:38:47.375Z,1.43
2022-11-08T01:42:49.351Z,1.10
2022-11-08T01:47:16.042Z,2.53
2022-11-08T01:51:25.371Z,2.03
2022-11-08T01:55:36.389Z,2.13
2022-11-08T01:59:41.726Z,0.53
2022-11-08T02:03:45.092Z,0.90
2022-11-08T02:07:46.987Z,1.03
2022-11-08T02:12:15.807Z,0.40
2022-11-08T02:16:19.998Z,0.90
2022-11-08T02:20:23.243Z,0.60
2022-11-08T02:24:25.525Z,0.53
2022-11-08T02:28:27.503Z,1.20
2022-11-08T02:32:42.818Z,0.97
2022-11-08T02:37:46.346Z,0.43
2022-11-08T02:41:48.214Z,0.93
2022-11-08T02:45:52.833Z,1.03
2022-11-08T02:49:56.075Z,2.10
2022-11-08T02:53:58.105Z,1.67
2022-11-08T02:58:00.560Z,1.60
2022-11-08T03:02:28.342Z,1.07
2022-11-08T03:06:32.613Z,2.00
2022-11-08T03:10:38.362Z,1.17
2022-11-08T03:14:40.243Z,0.63
2022-11-08T03:18:42.402Z,1.03
2022-11-08T03:22:45.467Z,1.30
2022-11-08T03:27:19.240Z,0.97
2022-11-08T03:32:04.101Z,2.23
2022-11-08T03:36:34.116Z,0.60
2022-11-08T03:40:37.084Z,2.50
2022-11-08T03:44:39.292Z,0.67
2022-11-08T03:48:41.254Z,1.60
2022-11-08T03:52:51.400Z,1.33
2022-11-08T03:56:53.563Z,0.87
2022-11-08T04:00:55.568Z,1.90
2022-11-08T04:04:59.672Z,2.50
2022-11-08T04:09:01.911Z,1.00
2022-11-08T04:13:29.939Z,1.77
2022-11-08T04:17:50.509Z,1.33
2022-11-08T04:21:54.574Z,1.80
2022-11-08T04:25:58.533Z,3.40
2022-11-08T04:30:01.730Z,1.63
2022-11-08T04:34:30.372Z,1.40
2022-11-08T04:38:32.883Z,0.90
2022-11-08T04:42:34.832Z,2.03
2022-11-08T04:46:37.942Z,0.93
2022-11-08T04:56:21.919Z,0.60
2022-11-08T05:00:23.783Z,0.40
2022-11-08T05:04:45.096Z,1.03
2022-11-08T05:08:47.288Z,0.80
2022-11-08T05:12:49.218Z,0.90
2022-11-08T05:17:19.165Z,0.50
2022-11-08T05:21:41.303Z,0.50
2022-11-08T05:25:44.150Z,1.77
2022-11-08T05:29:51.444Z,0.77
2022-11-08T05:33:53.567Z,1.27
2022-11-08T05:38:23.231Z,1.23
2022-11-08T05:42:26.671Z,0.50
2022-11-08T05:47:18.967Z,0.53
2022-11-08T05:52:10.938Z,0.40
2022-11-08T05:56:15.286Z,0.60
2022-11-08T06:00:37.413Z,0.63
2022-11-08T06:04:41.702Z,2.10
2022-11-08T06:08:50.244Z,1.33
2022-11-08T06:13:42.857Z,1.10
2022-11-08T06:18:13.050Z,1.30
2022-11-08T06:22:15.400Z,0.60
2022-11-08T06:26:44.642Z,1.80
2022-11-08T06:31:00.329Z,1.80
2022-11-08T06:35:02.230Z,0.80
2022-11-08T06:39:04.440Z,2.40
2022-11-08T06:43:18.000Z,1.50
2022-11-08T06:47:22.473Z,1.47
2022-11-08T06:51:24.400Z,1.63
2022-11-08T06:55:26.351Z,1.87
2022-11-08T06:59:28.908Z,0.60
2022-11-08T07:03:31.439Z,3.17
2022-11-08T07:07:33.485Z,0.83
2022-11-08T07:11:35.485Z,1.17
2022-11-08T07:15:38.350Z,1.57
2022-11-08T07:19:40.442Z,2.03
2022-11-08T07:23:42.523Z,1.20
2022-11-08T07:27:44.673Z,1.63
2022-11-08T07:31:49.840Z,1.10
2022-11-08T07:35:51.825Z,0.87
2022-11-08T07:40:11.026Z,1.47
2022-11-08T07:45:03.956Z,1.10
2022-11-08T07:49:35.462Z,1.77
2022-11-08T07:53:38.234Z,1.40
2022-11-08T08:03:17.099Z,2.23
2022-11-08T08:07:19.411Z,2.40
2022-11-08T08:11:21.369Z,2.40
2022-11-08T08:15:24.349Z,3.73
2022-11-08T08:19:27.369Z,3.20
2022-11-08T08:23:29.274Z,3.70
2022-11-08T08:27:32.451Z,1.67
2022-11-08T08:31:41.611Z,5.17
2022-11-08T08:35:45.587Z,2.87
2022-11-08T08:39:57.917Z,1.87
2022-11-08T08:43:59.930Z,2.27
2022-11-08T08:48:02.878Z,12.77
2022-11-08T08:52:04.993Z,36.87
2022-11-08T08:56:08.822Z,47.17
2022-11-08T09:05:09.883Z,70.17
2022-11-08T09:09:40.067Z,52.10
2022-11-08T09:13:42.299Z,25.03
2022-11-08T09:18:56.483Z,9.70
2022-11-08T09:23:02.876Z,47.20
2022-11-08T09:27:05.494Z,14.57
2022-11-08T09:31:10.360Z,12.73
2022-11-08T09:35:23.102Z,9.43
2022-11-08T09:39:27.198Z,44.17
2022-11-08T09:44:06.964Z,19.07
2022-11-08T09:48:27.704Z,38.93
2022-11-08T09:53:08.025Z,55.10
2022-11-08T09:57:42.124Z,45.40
2022-11-08T10:01:44.301Z,31.43
2022-11-08T10:06:47.375Z,41.60
2022-11-08T10:10:52.892Z,43.07
2022-11-08T10:20:48.785Z,8.70
2022-11-08T10:24:59.788Z,20.00
2022-11-08T10:29:22.934Z,19.73
2022-11-08T10:33:53.149Z,14.13
2022-11-08T10:38:04.756Z,20.03
2022-11-08T10:42:23.304Z,12.07
2022-11-08T10:47:03.409Z,7.70
2022-11-08T10:51:09.297Z,7.13
2022-11-08T10:55:38.728Z,5.47
2022-11-08T10:59:43.669Z,7.00
2022-11-08T11:03:57.892Z,8.87
2022-11-08T11:08:05.062Z,9.60
2022-11-08T11:12:08.948Z,10.57
2022-11-08T11:16:14.671Z,11.03
2022-11-08T11:20:41.888Z,9.77
2022-11-08T11:24:53.191Z,10.77
2022-11-08T11:29:17.002Z,10.40
2022-11-08T11:33:46.317Z,9.67
2022-11-08T11:37:48.683Z,11.93
2022-11-08T11:42:48.078Z,12.73
2022-11-08T11:47:27.772Z,11.40
2022-11-08T11:51:36.176Z,13.50
2022-11-08T11:56:05.729Z,10.73
2022-11-08T12:01:13.163Z,11.27
2022-11-08T12:05:22.564Z,11.27
2022-11-08T12:09:58.425Z,11.60
2022-11-08T12:15:01.604Z,10.50
2022-11-08T12:19:56.489Z,12.03
2022-11-08T12:24:29.263Z,11.77
2022-11-08T12:34:12.587Z,13.13
2022-11-08T12:38:37.789Z,11.90
2022-11-08T12:43:24.623Z,13.77
2022-11-08T12:48:05.334Z,15.60
2022-11-08T12:52:39.277Z,13.70
2022-11-08T12:56:45.523Z,14.23
2022-11-08T13:01:06.889Z,14.23
2022-11-08T13:05:37.748Z,13.60
2022-11-08T13:09:51.867Z,17.67
2022-11-08T13:14:22.405Z,17.30
2022-11-08T13:18:56.799Z,13.80
2022-11-08T13:23:00.865Z,17.13
2022-11-08T13:27:41.462Z,19.80
2022-11-08T13:31:59.655Z,19.90
2022-11-08T13:37:09.948Z,17.27
2022-11-08T13:41:30.236Z,26.47
2022-11-08T13:46:38.579Z,14.53
2022-11-08T13:51:25.277Z,17.30
2022-11-08T13:56:18.575Z,14.40
2022-11-08T14:00:43.459Z,59.57
2022-11-08T14:04:46.258Z,33.53
2022-11-08T14:09:03.894Z,67.43
2022-11-08T14:13:33.183Z,80.13
2022-11-08T14:18:01.503Z,42.90
2022-11-08T14:22:05.049Z,21.87
2022-11-08T14:26:20.373Z,19.10
2022-11-08T14:30:24.496Z,55.03
2022-11-08T14:34:41.860Z,56.90
2022-11-08T14:39:15.463Z,40.67
2022-11-08T14:43:20.848Z,19.47
2022-11-08T14:47:30.441Z,27.13
2022-11-08T14:51:42.241Z,46.33
2022-11-08T14:55:44.247Z,98.57
2022-11-08T14:59:58.784Z,136.17
2022-11-08T15:04:22.457Z,104.97
2022-11-08T15:08:52.104Z,112.30
2022-11-08T15:12:55.736Z,358.10
2022-11-08T15:17:28.592Z,245.50
2022-11-08T15:21:32.233Z,126.73
2022-11-08T15:25:35.960Z,124.07
2022-11-08T15:29:53.914Z,138.67
2022-11-08T15:34:42.054Z,161.87
2022-11-08T15:39:24.803Z,188.87
2022-11-08T15:43:42.943Z,182.73
2022-11-08T15:47:49.539Z,175.70
2022-11-08T15:51:54.192Z,232.50
2022-11-08T16:01:57.864Z,151.17
2022-11-08T16:05:59.838Z,229.40
2022-11-08T16:10:27.024Z,44.70
2022-11-08T16:14:29.007Z,23.53
2022-11-08T16:18:34.614Z,139.83
2022-11-08T16:22:36.569Z,127.00
2022-11-08T16:26:39.752Z,155.77
2022-11-08T16:30:46.458Z,78.60
2022-11-08T16:41:14.754Z,209.73
2022-11-08T16:45:19.618Z,136.90
2022-11-08T16:49:41.710Z,103.97
2022-11-08T16:53:49.613Z,168.90
2022-11-08T16:57:56.771Z,184.40
2022-11-08T17:01:59.132Z,16.33
2022-11-08T17:06:02.405Z,31.63
2022-11-08T17:10:55.334Z,86.77
2022-11-08T17:15:26.399Z,38.67
2022-11-08T17:19:46.761Z,55.93
2022-11-08T17:23:48.627Z,13.57
2022-11-08T17:27:52.896Z,9.80
2022-11-08T17:32:20.006Z,11.40
2022-11-08T17:36:24.296Z,82.07
2022-11-08T17:40:30.251Z,11.93
2022-11-08T17:44:46.869Z,28.60
2022-11-08T17:48:48.827Z,13.50
2022-11-08T17:53:30.042Z,9.50
2022-11-08T17:58:00.040Z,28.33
2022-11-08T18:02:02.024Z,87.13
2022-11-08T18:06:06.929Z,83.27
2022-11-08T18:10:10.095Z,25.80
2022-11-08T18:14:38.803Z,54.90
2022-11-08T18:18:47.372Z,59.83
2022-11-08T18:22:49.500Z,74.03
2022-11-08T18:27:13.148Z,39.93
2022-11-08T18:31:21.656Z,50.10
2022-11-08T18:35:48.682Z,28.93
2022-11-08T18:39:51.645Z,18.47
2022-11-08T18:43:55.171Z,19.57
2022-11-08T18:47:57.296Z,40.33
2022-11-08T18:51:59.337Z,16.60
2022-11-08T18:56:01.310Z,28.47
2022-11-08T19:00:05.620Z,21.23
2022-11-08T19:04:33.182Z,15.37
2022-11-08T19:08:46.784Z,32.50
2022-11-08T19:12:50.794Z,36.70
2022-11-08T19:17:16.325Z,16.47
2022-11-08T19:21:21.360Z,14.27
2022-11-08T19:25:24.426Z,55.47
2022-11-08T19:29:26.400Z,45.53
2022-11-08T19:33:37.493Z,148.30
2022-11-08T19:37:41.689Z,32.33
2022-11-08T19:41:44.746Z,86.53
2022-11-08T19:45:54.515Z,136.33
2022-11-08T19:50:23.393Z,63.07
2022-11-08T19:54:31.215Z,87.00
2022-11-08T19:58:34.355Z,74.30
2022-11-08T20:02:37.924Z,148.40
2022-11-08T20:06:42.144Z,58.57
2022-11-08T20:11:13.065Z,93.87
2022-11-08T20:15:53.426Z,121.37
2022-11-08T20:19:56.493Z,103.13
2022-11-08T20:24:00.901Z,109.77
2022-11-08T20:28:28.451Z,73.30
2022-11-08T20:32:46.670Z,67.67
2022-11-08T20:36:48.829Z,40.77
2022-11-08T20:40:50.682Z,34.83
2022-11-08T20:44:53.475Z,39.90
2022-11-08T20:49:00.377Z,35.40
2022-11-08T20:53:52.756Z,41.47
2022-11-08T20:58:24.376Z,31.40
2022-11-08T21:02:40.699Z,96.10
2022-11-08T21:06:42.759Z,71.27
2022-11-08T21:10:56.323Z,99.03
2022-11-08T21:14:58.516Z,123.47
2022-11-08T21:19:08.976Z,48.27
2022-11-08T21:23:39.788Z,58.63
2022-11-08T21:27:41.831Z,153.00
2022-11-08T21:31:43.753Z,123.17
2022-11-08T21:41:08.153Z,81.20
2022-11-08T21:45:10.519Z,55.20
2022-11-08T21:49:13.421Z,221.70
2022-11-08T21:53:52.364Z,70.40
2022-11-08T21:57:57.574Z,38.97
2022-11-08T22:02:24.943Z,102.03
2022-11-08T22:06:27.893Z,68.17
2022-11-08T22:10:29.782Z,112.77
2022-11-08T22:14:32.869Z,206.57
2022-11-08T22:22:56.620Z,69.67
2022-11-08T22:27:28.410Z,28.87
2022-11-08T22:31:35.619Z,97.33
2022-11-08T22:36:29.907Z,129.57
2022-11-08T22:40:32.920Z,17.43
2022-11-08T22:44:45.236Z,131.10
2022-11-08T22:48:47.964Z,159.30
2022-11-08T22:53:43.269Z,151.60
2022-11-08T22:58:41.068Z,73.70
2022-11-08T23:02:43.258Z,319.17
2022-11-08T23:07:16.681Z,257.43
2022-11-08T23:12:27.433Z,389.03
2022-11-08T23:16:32.202Z,285.70
2022-11-08T23:21:14.670Z,174.13
2022-11-08T23:25:16.604Z,16.17
2022-11-08T23:29:41.791Z,106.20
2022-11-08T23:33:44.362Z,215.10
2022-11-08T23:37:46.835Z,98.70
2022-11-08T23:42:07.333Z,119.00
2022-11-08T23:46:12.254Z,352.00
2022-11-08T23:50:26.660Z,251.47
2022-11-08T23:54:28.735Z,101.43
2022-11-08T23:58:34.950Z,229.30
